Time;durP1;ratioP1;P1;durP2;ratioP2;P2;SDS_P1;SDS_P2;PMS_P1;PMS_P2;Temp;Humidity;BMP_temperature;BMP_pressure;BME280_temperature;BME280_humidity;BME280_pressure;Samples;Min_cycle;Max_cycle;Signal;HPM_P1;HPM_P2
2021/10/24 00:02:21;;;;;;;6.60;5.90;;;2.60;99.90;;;;;;5049040;28;20664;-72
2021/10/24 00:04:48;;;;;;;9.70;6.40;;;2.60;99.90;;;;;;5048584;28;20240;-71
2021/10/24 00:07:16;;;;;;;11.15;6.95;;;2.60;99.90;;;;;;5048308;28;20201;-72
2021/10/24 00:09:43;;;;;;;7.03;6.03;;;2.60;99.90;;;;;;5048914;28;20252;-72
2021/10/24 00:12:10;;;;;;;6.60;5.90;;;2.60;99.90;;;;;;5049171;28;20208;-72
2021/10/24 00:14:36;;;;;;;7.05;6.10;;;2.60;99.90;;;;;;5048501;28;20220;-73
2021/10/24 00:17:04;;;;;;;8.32;5.82;;;2.60;99.90;;;;;;5048413;28;20215;-72
2021/10/24 00:19:30;;;;;;;8.60;6.35;;;2.60;99.90;;;;;;5048408;28;20204;-73
2021/10/24 00:21:57;;;;;;;6.70;5.90;;;2.60;99.90;;;;;;5048570;28;20689;-72
2021/10/24 00:24:25;;;;;;;9.55;5.88;;;2.60;99.90;;;;;;5048339;28;20221;-72
2021/10/24 00:26:52;;;;;;;7.95;6.32;;;2.50;99.90;;;;;;5047417;28;20224;-72
2021/10/24 00:29:19;;;;;;;5.60;5.05;;;2.50;99.90;;;;;;5048211;28;20217;-72
2021/10/24 00:31:46;;;;;;;8.05;6.45;;;2.50;99.90;;;;;;5048838;28;20555;-72
2021/10/24 00:34:13;;;;;;;6.63;5.93;;;2.50;99.90;;;;;;5048677;28;20205;-72
2021/10/24 00:36:40;;;;;;;5.95;5.30;;;2.50;99.90;;;;;;5048031;28;20599;-72
2021/10/24 00:39:06;;;;;;;6.75;6.05;;;2.50;99.90;;;;;;5049871;28;20201;-72
2021/10/24 00:41:35;;;;;;;6.10;5.25;;;2.40;99.90;;;;;;5049398;28;20212;-72
2021/10/24 00:44:21;;;;;;;9.20;6.15;;;2.40;99.90;;;;;;5049777;28;20300;-73
2021/10/24 00:46:49;;;;;;;7.80;5.90;;;2.40;99.90;;;;;;5048651;28;20772;-72
2021/10/24 00:49:17;;;;;;;12.98;6.00;;;2.40;99.90;;;;;;5049406;28;20225;-72
2021/10/24 00:51:44;;;;;;;6.25;5.40;;;2.40;99.90;;;;;;5051007;28;20201;-72
2021/10/24 00:54:13;;;;;;;7.05;5.22;;;2.40;99.90;;;;;;5050097;28;20208;-72
2021/10/24 00:56:44;;;;;;;8.65;6.43;;;2.40;99.90;;;;;;5048560;28;20217;-72
2021/10/24 00:59:11;;;;;;;8.68;6.53;;;2.30;99.90;;;;;;5050186;28;20216;-72
2021/10/24 01:01:38;;;;;;;9.98;5.88;;;2.30;99.90;;;;;;5049139;28;20223;-72
2021/10/24 01:04:05;;;;;;;6.88;5.82;;;2.20;99.90;;;;;;5049371;28;20215;-72
2021/10/24 01:06:33;;;;;;;8.20;5.85;;;2.20;99.90;;;;;;5048139;28;20227;-72
2021/10/24 01:09:00;;;;;;;7.25;5.38;;;2.30;99.90;;;;;;5048874;28;20215;-72
2021/10/24 01:11:28;;;;;;;10.70;5.43;;;2.30;99.90;;;;;;5048753;28;20205;-72
2021/10/24 01:13:57;;;;;;;8.07;5.40;;;2.20;99.90;;;;;;5048761;28;20208;-72
2021/10/24 01:16:24;;;;;;;7.35;5.00;;;2.20;99.90;;;;;;5048240;28;20225;-72
2021/10/24 01:18:51;;;;;;;6.55;4.85;;;2.20;99.90;;;;;;5048805;28;20575;-72
2021/10/24 01:21:21;;;;;;;5.97;5.35;;;2.20;99.90;;;;;;5048934;28;20219;-72
2021/10/24 01:23:48;;;;;;;8.30;5.47;;;2.20;99.90;;;;;;5048385;28;20209;-72
2021/10/24 01:26:15;;;;;;;6.20;5.07;;;2.20;99.90;;;;;;5047554;28;20225;-72
2021/10/24 01:28:41;;;;;;;11.45;5.95;;;2.10;99.90;;;;;;5047730;28;20205;-72
2021/10/24 01:31:08;;;;;;;8.15;5.32;;;2.10;99.90;;;;;;5048340;28;20220;-72
2021/10/24 01:33:35;;;;;;;6.43;5.45;;;2.10;99.90;;;;;;5048316;28;20201;-71
2021/10/24 01:36:04;;;;;;;6.88;4.78;;;2.10;99.90;;;;;;5047879;28;20251;-72
2021/10/24 01:38:32;;;;;;;6.85;5.50;;;2.10;99.90;;;;;;5047733;28;20209;-72
2021/10/24 01:40:59;;;;;;;7.68;4.95;;;2.10;99.90;;;;;;5047954;28;20205;-72
2021/10/24 01:43:27;;;;;;;8.80;5.80;;;2.00;99.90;;;;;;5047512;28;20208;-72
2021/10/24 01:45:54;;;;;;;8.30;4.80;;;2.00;99.90;;;;;;5049370;28;20225;-72
2021/10/24 01:50:50;;;;;;;6.32;4.53;;;1.90;99.90;;;;;;5067691;28;20212;-75
2021/10/24 01:53:18;;;;;;;4.45;4.00;;;1.90;99.90;;;;;;5069286;28;20192;-76
2021/10/24 01:55:46;;;;;;;5.47;4.95;;;1.90;99.90;;;;;;5070025;28;20718;-76
2021/10/24 01:58:13;;;;;;;5.68;4.82;;;1.90;99.90;;;;;;5070459;28;20224;-76
2021/10/24 02:00:42;;;;;;;5.93;5.32;;;1.90;99.90;;;;;;5070813;28;20200;-76
2021/10/24 02:03:10;;;;;;;5.53;4.20;;;1.90;99.90;;;;;;5070724;28;20694;-76
2021/10/24 02:05:37;;;;;;;4.90;4.40;;;1.90;99.90;;;;;;5070543;28;20575;-74
2021/10/24 02:08:04;;;;;;;6.82;4.30;;;1.90;99.90;;;;;;5070988;28;20212;-76
2021/10/24 02:10:31;;;;;;;6.35;4.43;;;1.90;99.90;;;;;;5070548;28;20224;-74
2021/10/24 02:12:59;;;;;;;5.05;4.45;;;1.90;99.90;;;;;;5070809;28;20312;-76
2021/10/24 02:15:26;;;;;;;4.95;4.50;;;1.90;99.90;;;;;;5070130;28;20216;-75
2021/10/24 02:17:53;;;;;;;6.25;4.82;;;1.90;99.90;;;;;;5070424;28;20588;-76
2021/10/24 02:20:20;;;;;;;5.75;4.30;;;1.80;99.90;;;;;;5070654;28;20297;-76
2021/10/24 02:22:47;;;;;;;4.97;4.30;;;1.80;99.90;;;;;;5070584;28;20210;-77
2021/10/24 02:25:15;;;;;;;6.18;4.45;;;1.80;99.90;;;;;;5070350;28;20227;-75
2021/10/24 02:27:42;;;;;;;5.35;4.53;;;1.80;99.90;;;;;;5070026;28;20223;-76
2021/10/24 02:30:11;;;;;;;8.52;4.20;;;1.80;99.90;;;;;;5070363;28;20224;-75
2021/10/24 02:32:39;;;;;;;4.85;4.32;;;1.80;99.90;;;;;;5070229;28;20196;-76
2021/10/24 02:35:06;;;;;;;4.80;4.25;;;1.70;99.90;;;;;;5070426;28;20231;-76
2021/10/24 02:37:33;;;;;;;5.00;4.32;;;1.70;99.90;;;;;;5069956;28;20602;-76
2021/10/24 02:40:00;;;;;;;6.20;4.68;;;1.70;99.90;;;;;;5070566;28;20204;-76
2021/10/24 02:42:27;;;;;;;6.07;4.40;;;1.70;99.90;;;;;;5070244;28;20207;-76
2021/10/24 02:44:53;;;;;;;5.15;4.30;;;1.70;99.90;;;;;;5070295;28;20207;-74
2021/10/24 02:47:21;;;;;;;7.55;4.72;;;1.70;99.90;;;;;;5069843;28;20200;-76
2021/10/24 02:49:49;;;;;;;6.65;4.43;;;1.70;99.90;;;;;;5070278;28;20231;-76
2021/10/24 02:52:16;;;;;;;5.93;4.05;;;1.70;99.90;;;;;;5070307;28;20197;-77
2021/10/24 02:54:43;;;;;;;6.70;5.03;;;1.70;99.90;;;;;;5070029;28;20586;-76
2021/10/24 02:57:10;;;;;;;6.40;4.70;;;1.70;99.90;;;;;;5069923;28;20207;-76
2021/10/24 02:59:36;;;;;;;6.63;5.22;;;1.70;99.90;;;;;;5070013;28;20709;-73
2021/10/24 03:02:04;;;;;;;6.95;4.82;;;1.70;99.90;;;;;;5073779;28;20222;-76
2021/10/24 03:04:32;;;;;;;5.88;4.95;;;1.60;99.90;;;;;;5074021;28;20200;-76
2021/10/24 03:06:59;;;;;;;5.25;4.20;;;1.60;99.90;;;;;;5073915;28;20247;-76
2021/10/24 03:09:27;;;;;;;6.70;4.50;;;1.60;99.90;;;;;;5073984;28;20204;-75
2021/10/24 03:11:53;;;;;;;6.25;5.15;;;1.60;99.90;;;;;;5074341;28;20651;-75
2021/10/24 03:14:21;;;;;;;8.10;5.50;;;1.60;99.90;;;;;;5073954;28;20203;-76
2021/10/24 03:16:47;;;;;;;10.93;6.13;;;1.60;99.90;;;;;;5073443;28;20228;-77
2021/10/24 03:19:15;;;;;;;12.98;6.70;;;1.60;99.90;;;;;;5074185;28;20223;-76
2021/10/24 03:21:43;;;;;;;12.55;7.63;;;1.50;99.90;;;;;;5073714;28;20193;-76
2021/10/24 03:24:09;;;;;;;12.10;6.30;;;1.50;99.90;;;;;;5073899;28;20200;-76
2021/10/24 03:26:36;;;;;;;7.82;4.40;;;1.50;99.90;;;;;;5073058;28;20220;-75
2021/10/24 03:29:03;;;;;;;6.28;4.65;;;1.50;99.90;;;;;;5073987;28;20204;-76
2021/10/24 03:31:30;;;;;;;8.23;5.25;;;1.50;99.90;;;;;;5073487;28;20228;-77
2021/10/24 03:33:57;;;;;;;8.23;4.60;;;1.50;99.90;;;;;;5073940;28;20204;-75
2021/10/24 03:36:24;;;;;;;5.40;4.30;;;1.50;99.90;;;;;;5072972;28;20231;-76
2021/10/24 03:38:52;;;;;;;5.57;4.03;;;1.50;99.90;;;;;;5073476;28;20204;-76
2021/10/24 03:41:19;;;;;;;5.75;4.38;;;1.50;99.90;;;;;;5073673;28;20668;-76
2021/10/24 03:43:45;;;;;;;4.70;3.72;;;1.50;99.90;;;;;;5073206;28;20204;-75
2021/10/24 03:46:12;;;;;;;4.55;4.15;;;1.50;99.90;;;;;;5073035;28;20224;-75
2021/10/24 03:48:39;;;;;;;4.88;3.72;;;1.50;99.90;;;;;;5073027;28;20207;-76
2021/10/24 03:51:06;;;;;;;5.80;3.97;;;1.50;99.90;;;;;;5073564;28;20299;-76
2021/10/24 03:53:32;;;;;;;5.30;4.05;;;1.50;99.90;;;;;;5072899;28;20207;-75
2021/10/24 03:56:01;;;;;;;9.13;3.80;;;1.50;99.90;;;;;;5072959;28;20217;-77
2021/10/24 03:58:27;;;;;;;4.32;3.85;;;1.50;99.90;;;;;;5072868;28;20204;-76
2021/10/24 04:00:54;;;;;;;4.82;3.85;;;1.40;99.90;;;;;;5073292;28;20254;-76
2021/10/24 04:03:21;;;;;;;5.63;4.20;;;1.40;99.90;;;;;;5073177;28;20196;-74
2021/10/24 04:05:49;;;;;;;4.40;3.60;;;1.40;99.90;;;;;;5072393;28;20231;-76
2021/10/24 04:08:16;;;;;;;7.05;3.58;;;1.40;99.90;;;;;;5073198;28;20240;-74
2021/10/24 04:10:44;;;;;;;6.25;4.63;;;1.50;99.90;;;;;;5072748;28;20231;-76
2021/10/24 04:13:12;;;;;;;7.10;5.07;;;1.40;99.90;;;;;;5072511;28;20204;-76
2021/10/24 04:15:39;;;;;;;5.25;3.50;;;1.40;99.90;;;;;;5072677;28;20221;-75
2021/10/24 04:18:06;;;;;;;7.35;4.30;;;1.40;99.90;;;;;;5072753;28;20204;-77
2021/10/24 04:20:33;;;;;;;7.00;4.07;;;1.40;99.90;;;;;;5072901;28;20569;-76
2021/10/24 04:22:59;;;;;;;7.22;4.43;;;1.40;99.90;;;;;;5072770;28;20203;-76
2021/10/24 04:25:26;;;;;;;6.00;4.30;;;1.40;99.90;;;;;;5072610;28;20216;-76
2021/10/24 04:27:53;;;;;;;5.40;4.10;;;1.40;99.90;;;;;;5072213;28;20632;-75
2021/10/24 04:30:21;;;;;;;6.20;4.43;;;1.30;99.90;;;;;;5072656;28;20219;-76
2021/10/24 04:32:49;;;;;;;6.35;4.03;;;1.30;99.90;;;;;;5072474;28;20204;-76
2021/10/24 04:35:16;;;;;;;5.45;4.35;;;1.30;99.90;;;;;;5072496;28;20614;-75
2021/10/24 04:37:43;;;;;;;8.13;4.10;;;1.30;99.90;;;;;;5071866;28;20597;-77
2021/10/24 04:40:11;;;;;;;5.10;3.42;;;1.30;99.90;;;;;;5072416;28;20215;-76
2021/10/24 04:42:38;;;;;;;3.70;3.30;;;1.20;99.90;;;;;;5072349;28;20702;-76
2021/10/24 04:45:07;;;;;;;4.65;3.90;;;1.20;99.90;;;;;;5072318;28;20243;-77
2021/10/24 04:47:36;;;;;;;7.00;4.18;;;1.20;99.90;;;;;;5071752;28;20204;-76
2021/10/24 04:50:03;;;;;;;4.00;3.60;;;1.20;99.90;;;;;;5072085;28;20212;-74
2021/10/24 04:52:30;;;;;;;5.32;4.00;;;1.20;99.90;;;;;;5072165;28;20224;-76
2021/10/24 04:54:56;;;;;;;3.17;2.88;;;1.20;99.90;;;;;;5072286;28;20197;-77
2021/10/24 04:57:23;;;;;;;6.38;3.60;;;1.20;99.90;;;;;;5071522;28;20210;-75
2021/10/24 04:59:50;;;;;;;5.13;3.88;;;1.20;99.90;;;;;;5072104;28;20196;-76
2021/10/24 05:02:17;;;;;;;6.45;3.97;;;1.20;99.90;;;;;;5072029;28;20200;-77
2021/10/24 05:04:45;;;;;;;11.52;4.32;;;1.20;99.90;;;;;;5072034;28;20596;-74
2021/10/24 05:07:11;;;;;;;6.50;4.80;;;1.20;99.90;;;;;;5071288;28;20201;-76
2021/10/24 05:09:38;;;;;;;5.82;3.85;;;1.20;99.90;;;;;;5071811;28;20196;-76
2021/10/24 05:12:05;;;;;;;6.18;4.43;;;1.10;99.90;;;;;;5071885;28;20220;-76
2021/10/24 05:14:32;;;;;;;4.80;3.88;;;1.10;99.90;;;;;;5071465;28;20204;-75
2021/10/24 05:16:59;;;;;;;8.02;4.57;;;1.10;99.90;;;;;;5071126;28;20727;-76
2021/10/24 05:19:26;;;;;;;5.15;3.70;;;1.10;99.90;;;;;;5071548;28;20208;-75
2021/10/24 05:21:54;;;;;;;7.72;4.72;;;1.10;99.90;;;;;;5071549;28;20275;-77
2021/10/24 05:24:20;;;;;;;5.45;4.38;;;1.10;99.90;;;;;;5070585;28;20213;-76
2021/10/24 05:26:47;;;;;;;5.80;4.22;;;1.10;99.90;;;;;;5070881;28;20220;-74
2021/10/24 05:29:14;;;;;;;10.02;5.35;;;1.10;99.90;;;;;;5071752;28;20324;-75
2021/10/24 05:31:40;;;;;;;3.97;3.63;;;1.10;99.90;;;;;;5071288;28;20221;-76
2021/10/24 05:34:07;;;;;;;5.65;4.22;;;1.10;99.90;;;;;;5071468;28;20203;-76
2021/10/24 05:36:34;;;;;;;7.15;5.05;;;1.40;99.90;;;;;;5070483;28;20223;-76
2021/10/24 05:39:02;;;;;;;11.25;5.25;;;1.80;99.90;;;;;;5071528;28;20207;-76
2021/10/24 05:41:31;;;;;;;4.90;4.10;;;1.70;99.90;;;;;;5071050;28;20196;-76
2021/10/24 05:43:58;;;;;;;4.97;3.60;;;1.50;99.90;;;;;;5071506;28;20208;-76
2021/10/24 05:46:25;;;;;;;5.15;3.90;;;1.40;99.90;;;;;;5070582;28;20231;-75
2021/10/24 05:48:51;;;;;;;4.00;3.60;;;1.20;99.90;;;;;;5070958;28;20688;-76
2021/10/24 05:51:18;;;;;;;5.40;4.38;;;1.20;99.90;;;;;;5071162;28;20231;-76
2021/10/24 05:53:45;;;;;;;5.50;4.10;;;1.10;99.90;;;;;;5070741;28;20204;-75
2021/10/24 05:56:14;;;;;;;7.28;4.40;;;1.00;99.90;;;;;;5070393;28;20594;-76
2021/10/24 05:58:42;;;;;;;4.93;4.35;;;1.00;99.90;;;;;;5070645;28;20236;-75
2021/10/24 06:01:09;;;;;;;6.18;4.45;;;1.00;99.90;;;;;;5071164;28;20204;-75
2021/10/24 06:03:35;;;;;;;5.32;4.68;;;1.00;99.90;;;;;;5070558;28;20200;-76
2021/10/24 06:06:02;;;;;;;5.80;4.63;;;1.00;99.90;;;;;;5070885;28;20243;-74
2021/10/24 06:08:30;;;;;;;6.05;5.03;;;1.00;99.90;;;;;;5070852;28;20208;-76
2021/10/24 06:11:05;;;;;;;5.07;4.57;;;1.10;99.90;;;;;;5070855;28;20695;-76
2021/10/24 06:13:33;;;;;;;5.03;4.03;;;1.10;99.90;;;;;;5070770;28;20200;-76
2021/10/24 06:15:59;;;;;;;4.03;3.65;;;1.00;99.90;;;;;;5070202;28;20562;-76
2021/10/24 06:18:26;;;;;;;4.68;4.25;;;1.10;99.90;;;;;;5070378;28;20672;-75
2021/10/24 06:20:53;;;;;;;6.28;4.20;;;1.00;99.90;;;;;;5070474;28;20204;-75
2021/10/24 06:23:20;;;;;;;8.00;5.00;;;1.00;99.90;;;;;;5070417;28;20201;-75
2021/10/24 06:25:46;;;;;;;4.85;3.92;;;1.10;99.90;;;;;;5069982;28;20604;-76
2021/10/24 06:28:16;;;;;;;5.47;3.90;;;1.10;99.90;;;;;;5071058;28;20211;-75
2021/10/24 06:30:44;;;;;;;6.80;5.07;;;1.10;99.90;;;;;;5069233;28;20238;-75
2021/10/24 06:33:12;;;;;;;7.45;4.85;;;1.10;99.90;;;;;;5069724;28;20821;-73
2021/10/24 06:35:38;;;;;;;5.40;4.18;;;1.20;99.90;;;;;;5070070;28;20220;-73
2021/10/24 06:38:05;;;;;;;5.78;4.25;;;1.20;99.90;;;;;;5069368;28;20200;-72
2021/10/24 06:40:32;;;;;;;5.38;4.15;;;1.20;99.90;;;;;;5068938;28;20207;-72
2021/10/24 06:42:59;;;;;;;5.68;4.15;;;1.30;99.90;;;;;;5069014;28;20197;-71
2021/10/24 06:45:26;;;;;;;5.05;4.03;;;1.30;99.90;;;;;;5068951;28;20231;-73
2021/10/24 06:47:54;;;;;;;4.53;4.13;;;1.30;99.90;;;;;;5068270;28;20618;-73
2021/10/24 06:50:21;;;;;;;7.60;4.75;;;1.40;99.90;;;;;;5069022;28;20204;-73
2021/10/24 06:52:48;;;;;;;4.57;4.18;;;1.50;99.90;;;;;;5068768;28;20699;-72
2021/10/24 06:55:16;;;;;;;6.68;4.25;;;1.50;99.90;;;;;;5068598;28;20597;-72
2021/10/24 06:57:52;;;;;;;6.90;4.53;;;1.50;99.90;;;;;;5068279;28;20196;-72
2021/10/24 07:00:20;;;;;;;10.02;5.22;;;1.60;99.90;;;;;;5069488;28;20202;-72
2021/10/24 07:02:47;;;;;;;6.78;4.20;;;1.60;99.90;;;;;;5069878;28;20903;-73
2021/10/24 07:05:16;;;;;;;6.40;5.10;;;1.70;99.90;;;;;;5069797;28;20880;-72
2021/10/24 07:07:42;;;;;;;5.75;5.05;;;1.80;99.90;;;;;;5069618;28;20200;-72
2021/10/24 07:10:10;;;;;;;5.97;4.57;;;2.10;99.90;;;;;;5070313;28;20295;-72
2021/10/24 07:12:38;;;;;;;6.15;4.57;;;2.50;99.90;;;;;;5070151;28;20220;-72
2021/10/24 07:15:07;;;;;;;7.20;4.57;;;3.00;99.90;;;;;;5070325;28;20216;-70
2021/10/24 07:17:34;;;;;;;6.07;4.60;;;3.40;99.90;;;;;;5064893;28;20204;-69
2021/10/24 07:20:01;;;;;;;9.02;4.88;;;3.80;99.90;;;;;;5065897;28;20454;-70
2021/10/24 07:22:29;;;;;;;5.63;4.95;;;4.10;99.90;;;;;;5068957;28;20204;-71
2021/10/24 07:24:55;;;;;;;6.03;5.00;;;4.50;99.90;;;;;;5069495;28;20204;-71
2021/10/24 07:27:22;;;;;;;4.75;4.32;;;4.80;99.90;;;;;;5068839;28;20201;-71
2021/10/24 07:29:49;;;;;;;5.97;4.25;;;5.20;99.90;;;;;;5069268;28;20200;-70
2021/10/24 07:32:15;;;;;;;7.07;4.45;;;5.50;99.90;;;;;;5069556;28;20231;-71
2021/10/24 07:34:42;;;;;;;5.40;4.63;;;5.70;99.90;;;;;;5066567;28;20285;-70
2021/10/24 07:37:09;;;;;;;5.00;4.50;;;5.80;99.90;;;;;;5069248;28;20618;-71
2021/10/24 07:39:37;;;;;;;5.57;4.05;;;6.00;99.90;;;;;;5069188;28;20636;-71
2021/10/24 07:42:05;;;;;;;3.55;3.22;;;6.30;99.90;;;;;;5069346;28;20200;-70
2021/10/24 07:44:32;;;;;;;4.82;3.75;;;6.70;99.90;;;;;;5069564;28;20300;-71
2021/10/24 07:46:59;;;;;;;8.73;3.97;;;7.00;99.90;;;;;;5069423;28;20253;-69
2021/10/24 07:49:25;;;;;;;5.93;4.15;;;7.30;99.90;;;;;;5084691;22;20731;-69
2021/10/24 07:51:52;;;;;;;5.38;4.18;;;7.60;99.90;;;;;;5072912;28;20598;-69
2021/10/24 07:54:19;;;;;;;5.15;3.90;;;7.80;99.90;;;;;;5072150;28;20721;-69
2021/10/24 07:56:47;;;;;;;5.20;4.15;;;8.10;99.90;;;;;;5072597;28;20224;-69
2021/10/24 07:59:14;;;;;;;9.25;4.78;;;8.30;99.90;;;;;;5085182;28;20192;-69
2021/10/24 08:01:42;;;;;;;6.15;4.57;;;8.60;99.90;;;;;;5093461;28;20196;-69
2021/10/24 08:04:09;;;;;;;5.13;4.45;;;8.80;99.90;;;;;;5093804;28;20227;-70
2021/10/24 08:06:36;;;;;;;6.95;4.88;;;9.10;99.90;;;;;;5094098;28;20223;-70
2021/10/24 08:09:03;;;;;;;8.25;4.30;;;9.30;99.90;;;;;;5094120;28;20667;-69
2021/10/24 08:11:30;;;;;;;6.82;4.35;;;9.50;99.90;;;;;;5093286;28;20607;-69
2021/10/24 08:13:58;;;;;;;6.55;4.60;;;9.70;99.90;;;;;;5094443;28;20211;-69
2021/10/24 08:16:25;;;;;;;6.47;4.72;;;10.00;99.90;;;;;;5093393;28;20227;-69
2021/10/24 08:18:52;;;;;;;6.10;4.50;;;10.20;99.90;;;;;;5094366;28;20206;-70
2021/10/24 08:21:19;;;;;;;4.50;3.97;;;10.60;99.90;;;;;;5094420;28;20203;-69
2021/10/24 08:23:46;;;;;;;8.52;4.60;;;10.70;99.90;;;;;;5095063;28;20207;-69
2021/10/24 08:26:14;;;;;;;7.13;4.43;;;11.00;99.90;;;;;;5093661;28;20219;-69
2021/10/24 08:28:40;;;;;;;4.50;4.10;;;11.10;99.90;;;;;;5094156;28;20204;-69
2021/10/24 08:31:08;;;;;;;7.15;5.28;;;11.20;99.90;;;;;;5094048;28;20208;-69
2021/10/24 08:33:35;;;;;;;6.85;4.65;;;11.30;99.90;;;;;;5093567;28;20235;-69
2021/10/24 08:36:02;;;;;;;5.07;4.57;;;11.40;99.90;;;;;;5093119;28;20219;-69
2021/10/24 08:38:30;;;;;;;6.95;5.05;;;11.50;99.90;;;;;;5094346;28;20210;-69
2021/10/24 08:40:58;;;;;;;5.25;4.35;;;11.50;99.90;;;;;;5093490;28;20284;-69
2021/10/24 08:43:28;;;;;;;5.82;4.50;;;11.60;99.90;;;;;;5085065;28;20241;-69
2021/10/24 08:45:55;;;;;;;7.47;5.70;;;11.80;99.90;;;;;;5089028;28;20227;-69
2021/10/24 08:48:24;;;;;;;5.90;4.90;;;11.80;99.90;;;;;;5092849;28;20204;-69
2021/10/24 08:50:51;;;;;;;6.20;4.55;;;11.80;99.90;;;;;;5093044;28;20295;-69
2021/10/24 08:53:29;;;;;;;4.72;3.80;;;11.70;99.90;;;;;;5093479;28;20224;-69
2021/10/24 08:55:57;;;;;;;5.07;4.03;;;11.60;99.90;;;;;;5052748;28;20213;-69
2021/10/24 08:58:25;;;;;;;5.07;4.15;;;11.40;99.90;;;;;;5052786;28;20209;-69
2021/10/24 09:00:53;;;;;;;5.25;3.75;;;11.60;99.90;;;;;;5052036;28;20201;-69
2021/10/24 09:03:26;;;;;;;7.45;3.97;;;11.70;99.90;;;;;;5050984;28;20207;-68
2021/10/24 09:05:53;;;;;;;4.65;3.88;;;12.00;99.90;;;;;;5051637;28;20654;-69
2021/10/24 09:08:22;;;;;;;6.90;4.40;;;12.20;99.90;;;;;;5051480;28;20209;-69
2021/10/24 09:10:51;;;;;;;4.55;4.15;;;12.30;99.90;;;;;;5051915;28;20959;-68
2021/10/24 09:13:31;;;;;;;5.18;4.18;;;12.30;99.90;;;;;;5051612;28;20699;-69
2021/10/24 09:16:01;;;;;;;4.93;3.70;;;12.20;99.90;;;;;;5052790;28;20477;-69
2021/10/24 09:18:37;;;;;;;5.70;3.55;;;12.30;99.90;;;;;;5052804;28;20224;-69
2021/10/24 09:21:22;;;;;;;4.87;3.83;;;12.40;99.90;;;;;;5051792;28;20664;-69
2021/10/24 09:23:51;;;;;;;3.87;3.43;;;12.60;99.90;;;;;;5052927;28;20455;-69
2021/10/24 09:26:26;;;;;;;2.90;2.70;;;12.60;99.90;;;;;;5050257;28;20983;-69
2021/10/24 09:29:06;;;;;;;3.70;3.17;;;12.80;99.90;;;;;;5051562;28;20509;-69
2021/10/24 09:31:40;;;;;;;4.47;3.10;;;13.00;99.90;;;;;;5051251;28;20483;-70
2021/10/24 09:34:17;;;;;;;5.47;3.30;;;12.90;99.90;;;;;;5051635;28;20986;-69
2021/10/24 09:36:52;;;;;;;5.87;3.37;;;13.00;99.90;;;;;;5050981;28;20501;-70
2021/10/24 09:39:20;;;;;;;5.47;3.30;;;13.10;99.90;;;;;;5051140;28;20509;-69
2021/10/24 09:42:11;;;;;;;3.80;3.20;;;13.30;99.90;;;;;;5050895;28;20487;-69
2021/10/24 09:45:04;;;;;;;5.57;3.40;;;13.30;99.90;;;;;;5051112;28;20463;-70
2021/10/24 09:47:33;;;;;;;5.57;3.23;;;13.20;99.90;;;;;;5051600;28;20503;-70
2021/10/24 09:50:01;;;;;;;4.50;3.17;;;13.20;99.90;;;;;;5050538;28;20980;-69
2021/10/24 09:52:29;;;;;;;3.60;3.10;;;13.30;99.90;;;;;;5050943;28;21032;-70
2021/10/24 09:54:57;;;;;;;4.03;3.33;;;13.50;99.90;;;;;;5050591;28;20526;-69
2021/10/24 09:57:25;;;;;;;4.53;3.40;;;13.90;99.90;;;;;;5050502;28;20470;-69
2021/10/24 09:59:53;;;;;;;3.60;3.30;;;14.10;99.90;;;;;;5051287;28;20927;-70
2021/10/24 10:02:21;;;;;;;4.83;4.10;;;14.20;99.90;;;;;;5050950;28;20466;-70
2021/10/24 10:04:48;;;;;;;6.17;3.80;;;14.50;99.90;;;;;;5053414;28;20459;-70
2021/10/24 10:07:21;;;;;;;3.47;2.70;;;14.60;99.90;;;;;;5051336;28;20655;-70
2021/10/24 10:09:50;;;;;;;2.97;2.77;;;14.90;99.90;;;;;;5053878;28;20463;-70
2021/10/24 10:12:24;;;;;;;4.53;3.13;;;15.30;99.90;;;;;;5052160;28;20483;-70
2021/10/24 10:14:57;;;;;;;3.53;3.20;;;15.60;99.90;;;;;;5052671;28;20874;-70
2021/10/24 10:17:27;;;;;;;4.70;3.00;;;15.80;99.90;;;;;;5050969;28;20471;-70
2021/10/24 10:19:54;;;;;;;4.20;3.33;;;16.30;99.90;;;;;;5051494;28;20542;-70
2021/10/24 10:22:34;;;;;;;3.30;2.70;;;16.60;99.50;;;;;;5076670;28;20485;-69
2021/10/24 10:25:03;;;;;;;3.93;3.50;;;17.00;99.10;;;;;;5091610;28;20485;-69
2021/10/24 10:27:43;;;;;;;4.67;3.60;;;17.10;97.30;;;;;;5089934;28;20488;-69
2021/10/24 10:30:14;;;;;;;5.50;3.57;;;16.70;97.40;;;;;;5075914;28;20458;-69
2021/10/24 10:32:43;;;;;;;4.43;3.20;;;16.90;98.30;;;;;;5070593;28;20561;-69
2021/10/24 10:35:11;;;;;;;3.67;3.37;;;16.70;96.80;;;;;;5070105;28;20487;-69
2021/10/24 10:37:50;;;;;;;4.20;3.80;;;17.00;98.10;;;;;;5069381;28;20477;-69
2021/10/24 10:40:19;;;;;;;5.10;3.23;;;16.80;96.10;;;;;;5070580;28;20470;-69
2021/10/24 10:42:52;;;;;;;3.60;3.10;;;16.70;96.90;;;;;;5069738;28;20490;-69
2021/10/24 10:45:44;;;;;;;4.87;3.23;;;17.10;98.40;;;;;;5070096;28;20864;-70
2021/10/24 10:48:24;;;;;;;6.67;3.13;;;17.70;96.30;;;;;;5067431;28;20459;-69
2021/10/24 10:50:55;;;;;;;3.30;3.00;;;17.70;95.90;;;;;;5075382;28;20468;-69
2021/10/24 10:53:53;;;;;;;5.40;3.40;;;18.00;95.90;;;;;;5090329;28;20461;-69
2021/10/24 10:56:25;;;;;;;4.20;3.30;;;18.50;97.80;;;;;;5087761;28;20469;-69
2021/10/24 10:58:53;;;;;;;3.57;3.27;;;18.90;96.00;;;;;;5086443;28;20462;-70
2021/10/24 11:01:25;;;;;;;3.57;3.27;;;19.30;94.70;;;;;;5069265;28;20469;-70
2021/10/24 11:03:56;;;;;;;4.60;3.43;;;19.40;95.80;;;;;;5063253;28;20477;-69
2021/10/24 11:06:58;;;;;;;3.30;3.00;;;19.80;95.80;;;;;;5048258;28;20987;-69
2021/10/24 11:09:46;;;;;;;3.63;3.27;;;20.00;94.40;;;;;;5049636;28;20470;-70
2021/10/24 11:12:31;;;;;;;2.97;2.77;;;20.00;95.20;;;;;;5048745;28;20466;-70
2021/10/24 11:15:07;;;;;;;4.57;2.93;;;20.20;95.70;;;;;;5049190;28;20455;-70
2021/10/24 11:17:38;;;;;;;3.60;3.27;;;20.40;95.50;;;;;;5048166;28;20459;-70
2021/10/24 11:20:16;;;;;;;3.77;3.10;;;20.60;95.10;;;;;;5049281;28;20954;-70
2021/10/24 11:22:46;;;;;;;3.60;3.10;;;21.00;94.60;;;;;;5051450;28;20490;-70
2021/10/24 11:25:26;;;;;;;3.40;2.77;;;21.30;94.60;;;;;;5052702;28;20513;-70
2021/10/24 11:27:53;;;;;;;3.73;3.40;;;21.50;94.00;;;;;;5052874;28;20843;-70
2021/10/24 11:30:20;;;;;;;3.63;2.93;;;21.80;94.10;;;;;;5052656;28;20463;-69
2021/10/24 11:32:53;;;;;;;4.50;3.00;;;22.00;93.90;;;;;;5064281;28;20450;-70
2021/10/24 11:35:21;;;;;;;3.40;3.00;;;22.20;93.10;;;;;;5092430;28;20478;-70
2021/10/24 11:37:50;;;;;;;4.50;3.00;;;22.40;92.90;;;;;;5092808;28;20933;-70
2021/10/24 11:40:18;;;;;;;3.53;2.87;;;22.50;93.20;;;;;;5092805;28;20469;-69
2021/10/24 11:42:59;;;;;;;5.60;3.40;;;22.50;93.10;;;;;;5082407;28;21013;-69
2021/10/24 11:45:27;;;;;;;4.00;3.30;;;22.20;92.60;;;;;;5074050;28;20493;-70
2021/10/24 11:47:59;;;;;;;3.37;3.07;;;22.30;93.10;;;;;;5092176;28;20469;-70
2021/10/24 11:50:47;;;;;;;3.47;2.80;;;22.30;92.80;;;;;;5092622;28;20469;-70
2021/10/24 11:53:22;;;;;;;4.40;3.00;;;22.20;93.10;;;;;;5087217;28;20549;-70
2021/10/24 11:55:50;;;;;;;3.37;3.07;;;22.20;93.00;;;;;;5085308;28;20473;-70
2021/10/24 12:01:15;;;;;;;3.47;3.00;;;21.70;92.90;;;;;;5032675;28;20549;-70
2021/10/24 12:03:43;;;;;;;3.60;3.10;;;21.70;93.60;;;;;;5053576;28;20487;-70
2021/10/24 12:06:12;;;;;;;3.60;3.30;;;21.80;93.70;;;;;;5051887;28;20515;-70
2021/10/24 12:08:40;;;;;;;4.00;3.37;;;21.90;93.60;;;;;;5053318;28;20464;-69
2021/10/24 12:11:07;;;;;;;4.63;3.17;;;21.70;93.40;;;;;;5052542;28;20521;-70
2021/10/24 12:13:37;;;;;;;3.20;2.93;;;21.60;93.30;;;;;;5052820;28;20554;-70
2021/10/24 12:16:06;;;;;;;6.50;3.27;;;21.70;93.70;;;;;;5051954;28;20474;-70
2021/10/24 12:18:34;;;;;;;3.90;3.20;;;21.60;93.60;;;;;;5053150;28;20873;-70
2021/10/24 12:21:03;;;;;;;4.53;3.60;;;21.30;93.90;;;;;;5052594;28;20455;-70
2021/10/24 12:23:34;;;;;;;5.40;3.77;;;20.90;93.40;;;;;;5064781;28;20508;-70
2021/10/24 12:26:04;;;;;;;4.80;3.60;;;20.70;94.40;;;;;;5087178;28;20612;-70
2021/10/24 12:28:36;;;;;;;4.60;3.93;;;20.30;94.60;;;;;;5092358;28;20458;-70
2021/10/24 12:31:05;;;;;;;4.30;3.87;;;20.10;95.10;;;;;;5092145;28;20464;-70
2021/10/24 12:33:34;;;;;;;6.20;4.30;;;20.00;95.10;;;;;;5091843;28;20750;-70
2021/10/24 12:36:05;;;;;;;4.40;3.90;;;20.00;95.40;;;;;;5092084;28;20481;-69
2021/10/24 12:38:47;;;;;;;3.63;3.30;;;19.90;95.80;;;;;;5077023;28;20988;-70
2021/10/24 12:41:14;;;;;;;4.00;3.60;;;19.70;95.80;;;;;;5055689;28;20550;-70
2021/10/24 12:43:48;;;;;;;4.17;3.77;;;19.60;96.00;;;;;;5052715;28;20479;-69
2021/10/24 12:46:27;;;;;;;4.37;3.73;;;19.60;96.10;;;;;;5070866;28;20510;-69
2021/10/24 12:48:54;;;;;;;4.50;3.90;;;19.60;95.30;;;;;;5071995;28;20476;-69
2021/10/24 12:51:23;;;;;;;4.77;3.87;;;19.60;95.70;;;;;;5071580;28;20470;-69
2021/10/24 12:53:50;;;;;;;4.40;3.50;;;19.40;95.70;;;;;;5072088;28;20473;-69
2021/10/24 12:56:17;;;;;;;4.43;4.03;;;19.30;95.50;;;;;;5070720;28;20497;-69
2021/10/24 12:58:43;;;;;;;4.23;3.83;;;19.30;96.20;;;;;;5071536;28;20950;-69
2021/10/24 13:01:24;;;;;;;4.10;3.60;;;19.30;95.90;;;;;;5071161;28;20458;-69
2021/10/24 13:03:51;;;;;;;6.93;4.10;;;19.30;96.00;;;;;;5075570;28;20564;-69
2021/10/24 13:06:18;;;;;;;4.00;3.20;;;19.20;95.90;;;;;;5090561;28;20496;-69
2021/10/24 13:08:44;;;;;;;4.60;3.63;;;19.20;96.20;;;;;;5092026;28;20453;-69